sensor_id;sensor_type;location;lat;lon;timestamp;temperature;humidity
24522;DHT22;12680;57.804;12.190;2023-04-15T00:02:13;8.70;99.90
24522;DHT22;12680;57.804;12.190;2023-04-15T00:04:40;8.70;99.90
24522;DHT22;12680;57.804;12.190;2023-04-15T00:07:07;8.70;99.90
24522;DHT22;12680;57.804;12.190;2023-04-15T00:09:34;8.70;99.90
24522;DHT22;12680;57.804;12.190;2023-04-15T00:12:01;8.70;99.90
24522;DHT22;12680;57.804;12.190;2023-04-15T00:14:28;8.80;99.90
24522;DHT22;12680;57.804;12.190;2023-04-15T00:16:55;8.80;99.90
24522;DHT22;12680;57.804;12.190;2023-04-15T00:19:23;8.80;99.90
24522;DHT22;12680;57.804;12.190;2023-04-15T00:21:50;8.80;99.90
24522;DHT22;12680;57.804;12.190;2023-04-15T00:24:17;8.80;99.90
24522;DHT22;12680;57.804;12.190;2023-04-15T00:26:44;8.80;99.90
24522;DHT22;12680;57.804;12.190;2023-04-15T00:29:10;8.80;99.90
24522;DHT22;12680;57.804;12.190;2023-04-15T00:31:37;8.90;99.90
24522;DHT22;12680;57.804;12.190;2023-04-15T00:34:04;8.90;99.90
24522;DHT22;12680;57.804;12.190;2023-04-15T00:36:30;10.40;99.90
24522;DHT22;12680;57.804;12.190;2023-04-15T00:38:59;8.80;99.90
24522;DHT22;12680;57.804;12.190;2023-04-15T00:41:26;10.60;99.90
24522;DHT22;12680;57.804;12.190;2023-04-15T00:43:53;8.90;99.90
24522;DHT22;12680;57.804;12.190;2023-04-15T00:46:20;8.90;99.90
24522;DHT22;12680;57.804;12.190;2023-04-15T00:48:48;8.90;99.90
24522;DHT22;12680;57.804;12.190;2023-04-15T00:51:15;9.00;99.90
24522;DHT22;12680;57.804;12.190;2023-04-15T00:53:42;9.00;99.90
24522;DHT22;12680;57.804;12.190;2023-04-15T00:56:09;10.20;99.90
24522;DHT22;12680;57.804;12.190;2023-04-15T00:58:36;9.90;99.90
24522;DHT22;12680;57.804;12.190;2023-04-15T01:01:03;9.00;99.90
24522;DHT22;12680;57.804;12.190;2023-04-15T01:03:30;8.90;99.90
24522;DHT22;12680;57.804;12.190;2023-04-15T01:05:57;10.60;99.90
24522;DHT22;12680;57.804;12.190;2023-04-15T01:08:27;9.00;99.90
24522;DHT22;12680;57.804;12.190;2023-04-15T01:10:56;8.90;99.90
24522;DHT22;12680;57.804;12.190;2023-04-15T01:13:24;8.90;99.90
24522;DHT22;12680;57.804;12.190;2023-04-15T01:15:51;8.90;99.90
24522;DHT22;12680;57.804;12.190;2023-04-15T01:18:18;9.80;99.90
24522;DHT22;12680;57.804;12.190;2023-04-15T01:20:46;9.00;99.90
24522;DHT22;12680;57.804;12.190;2023-04-15T01:23:13;9.00;99.90
24522;DHT22;12680;57.804;12.190;2023-04-15T01:25:41;9.40;99.90
24522;DHT22;12680;57.804;12.190;2023-04-15T01:28:09;8.90;99.90
24522;DHT22;12680;57.804;12.190;2023-04-15T01:30:36;10.30;99.90
24522;DHT22;12680;57.804;12.190;2023-04-15T01:33:03;8.80;99.90
24522;DHT22;12680;57.804;12.190;2023-04-15T01:35:30;8.80;99.90
24522;DHT22;12680;57.804;12.190;2023-04-15T01:38:09;8.80;99.90
24522;DHT22;12680;57.804;12.190;2023-04-15T01:40:36;9.80;99.90
24522;DHT22;12680;57.804;12.190;2023-04-15T01:43:02;8.60;99.90
24522;DHT22;12680;57.804;12.190;2023-04-15T01:45:29;8.60;99.90
24522;DHT22;12680;57.804;12.190;2023-04-15T01:47:56;8.60;99.90
24522;DHT22;12680;57.804;12.190;2023-04-15T01:50:23;8.60;99.90
24522;DHT22;12680;57.804;12.190;2023-04-15T01:52:50;8.60;99.90
24522;DHT22;12680;57.804;12.190;2023-04-15T01:55:17;8.70;99.90
24522;DHT22;12680;57.804;12.190;2023-04-15T01:57:44;8.70;99.90
24522;DHT22;12680;57.804;12.190;2023-04-15T02:00:12;8.70;99.90
24522;DHT22;12680;57.804;12.190;2023-04-15T02:02:39;8.70;99.90
24522;DHT22;12680;57.804;12.190;2023-04-15T02:05:06;8.70;99.90
24522;DHT22;12680;57.804;12.190;2023-04-15T02:07:32;8.70;99.90
24522;DHT22;12680;57.804;12.190;2023-04-15T02:09:59;8.80;99.90
24522;DHT22;12680;57.804;12.190;2023-04-15T02:12:26;8.90;99.90
24522;DHT22;12680;57.804;12.190;2023-04-15T02:14:53;8.80;99.90
24522;DHT22;12680;57.804;12.190;2023-04-15T02:17:21;8.80;99.90
24522;DHT22;12680;57.804;12.190;2023-04-15T02:19:48;8.70;99.90
24522;DHT22;12680;57.804;12.190;2023-04-15T02:22:14;8.60;99.90
24522;DHT22;12680;57.804;12.190;2023-04-15T02:24:44;8.60;99.90
24522;DHT22;12680;57.804;12.190;2023-04-15T02:27:17;8.60;99.90
24522;DHT22;12680;57.804;12.190;2023-04-15T02:29:44;9.80;99.90
24522;DHT22;12680;57.804;12.190;2023-04-15T02:32:12;8.60;99.90
24522;DHT22;12680;57.804;12.190;2023-04-15T02:34:39;8.50;99.90
24522;DHT22;12680;57.804;12.190;2023-04-15T02:37:12;8.50;99.90
24522;DHT22;12680;57.804;12.190;2023-04-15T02:39:39;8.50;99.90
24522;DHT22;12680;57.804;12.190;2023-04-15T02:42:05;8.40;99.90
24522;DHT22;12680;57.804;12.190;2023-04-15T02:44:32;8.40;99.90
24522;DHT22;12680;57.804;12.190;2023-04-15T02:47:01;8.30;99.90
24522;DHT22;12680;57.804;12.190;2023-04-15T02:49:30;8.20;99.90
24522;DHT22;12680;57.804;12.190;2023-04-15T02:51:57;8.20;99.90
24522;DHT22;12680;57.804;12.190;2023-04-15T02:54:25;8.20;99.90
24522;DHT22;12680;57.804;12.190;2023-04-15T02:56:54;8.10;99.90
24522;DHT22;12680;57.804;12.190;2023-04-15T02:59:21;8.00;99.90
24522;DHT22;12680;57.804;12.190;2023-04-15T03:01:48;8.00;99.90
24522;DHT22;12680;57.804;12.190;2023-04-15T03:04:15;8.00;99.90
24522;DHT22;12680;57.804;12.190;2023-04-15T03:06:42;8.00;99.90
24522;DHT22;12680;57.804;12.190;2023-04-15T03:09:09;7.90;99.90
24522;DHT22;12680;57.804;12.190;2023-04-15T03:11:36;9.00;99.90
24522;DHT22;12680;57.804;12.190;2023-04-15T03:14:06;9.60;99.90
24522;DHT22;12680;57.804;12.190;2023-04-15T03:16:32;7.90;99.90
24522;DHT22;12680;57.804;12.190;2023-04-15T03:18:59;7.90;99.90
24522;DHT22;12680;57.804;12.190;2023-04-15T03:21:26;7.90;99.90
24522;DHT22;12680;57.804;12.190;2023-04-15T03:23:53;7.90;99.90
24522;DHT22;12680;57.804;12.190;2023-04-15T03:26:27;7.90;99.90
24522;DHT22;12680;57.804;12.190;2023-04-15T03:28:54;7.90;99.90
24522;DHT22;12680;57.804;12.190;2023-04-15T03:31:21;7.80;99.90
24522;DHT22;12680;57.804;12.190;2023-04-15T03:33:48;7.80;99.90
24522;DHT22;12680;57.804;12.190;2023-04-15T03:36:15;7.80;99.90
24522;DHT22;12680;57.804;12.190;2023-04-15T03:38:42;7.80;99.90
24522;DHT22;12680;57.804;12.190;2023-04-15T03:41:09;7.80;99.90
24522;DHT22;12680;57.804;12.190;2023-04-15T03:43:36;7.70;99.90
24522;DHT22;12680;57.804;12.190;2023-04-15T03:46:02;7.70;99.90
24522;DHT22;12680;57.804;12.190;2023-04-15T03:48:29;7.70;99.90
24522;DHT22;12680;57.804;12.190;2023-04-15T03:50:56;7.80;99.90
24522;DHT22;12680;57.804;12.190;2023-04-15T03:53:23;7.70;99.90
24522;DHT22;12680;57.804;12.190;2023-04-15T03:55:49;7.70;99.90
24522;DHT22;12680;57.804;12.190;2023-04-15T03:58:17;7.70;99.90
24522;DHT22;12680;57.804;12.190;2023-04-15T04:00:44;7.60;99.90
24522;DHT22;12680;57.804;12.190;2023-04-15T04:03:11;7.60;99.90
24522;DHT22;12680;57.804;12.190;2023-04-15T04:05:38;7.60;99.90
24522;DHT22;12680;57.804;12.190;2023-04-15T04:08:07;7.50;99.90
24522;DHT22;12680;57.804;12.190;2023-04-15T04:10:33;7.50;99.90
24522;DHT22;12680;57.804;12.190;2023-04-15T04:13:00;7.50;99.90
24522;DHT22;12680;57.804;12.190;2023-04-15T04:15:27;7.50;99.90
24522;DHT22;12680;57.804;12.190;2023-04-15T04:17:54;9.10;99.90
24522;DHT22;12680;57.804;12.190;2023-04-15T04:20:21;7.50;99.90
24522;DHT22;12680;57.804;12.190;2023-04-15T04:22:48;7.50;99.90
24522;DHT22;12680;57.804;12.190;2023-04-15T04:25:15;7.50;99.90
24522;DHT22;12680;57.804;12.190;2023-04-15T04:27:42;7.60;99.90
24522;DHT22;12680;57.804;12.190;2023-04-15T04:30:11;7.50;99.90
24522;DHT22;12680;57.804;12.190;2023-04-15T04:32:38;7.50;99.90
24522;DHT22;12680;57.804;12.190;2023-04-15T04:35:04;7.50;99.90
24522;DHT22;12680;57.804;12.190;2023-04-15T04:37:32;7.50;99.90
24522;DHT22;12680;57.804;12.190;2023-04-15T04:39:59;7.50;99.90
24522;DHT22;12680;57.804;12.190;2023-04-15T04:42:26;7.60;99.90
24522;DHT22;12680;57.804;12.190;2023-04-15T04:44:53;7.50;99.90
24522;DHT22;12680;57.804;12.190;2023-04-15T04:47:19;7.60;99.90
24522;DHT22;12680;57.804;12.190;2023-04-15T04:49:46;7.60;99.90
24522;DHT22;12680;57.804;12.190;2023-04-15T04:52:13;7.60;99.90
24522;DHT22;12680;57.804;12.190;2023-04-15T04:54:40;7.60;99.90
24522;DHT22;12680;57.804;12.190;2023-04-15T04:57:07;7.60;99.90
24522;DHT22;12680;57.804;12.190;2023-04-15T04:59:33;7.60;99.90
24522;DHT22;12680;57.804;12.190;2023-04-15T05:02:00;7.60;99.90
24522;DHT22;12680;57.804;12.190;2023-04-15T05:04:27;7.60;99.90
24522;DHT22;12680;57.804;12.190;2023-04-15T05:06:54;7.60;99.90
24522;DHT22;12680;57.804;12.190;2023-04-15T05:09:21;7.60;99.90
24522;DHT22;12680;57.804;12.190;2023-04-15T05:11:47;7.60;99.90
24522;DHT22;12680;57.804;12.190;2023-04-15T05:14:14;7.60;99.90
24522;DHT22;12680;57.804;12.190;2023-04-15T05:16:41;7.60;99.90
24522;DHT22;12680;57.804;12.190;2023-04-15T05:19:08;7.70;99.90
24522;DHT22;12680;57.804;12.190;2023-04-15T05:21:35;7.70;99.90
24522;DHT22;12680;57.804;12.190;2023-04-15T05:24:05;7.70;99.90
24522;DHT22;12680;57.804;12.190;2023-04-15T05:26:32;7.70;99.90
24522;DHT22;12680;57.804;12.190;2023-04-15T05:28:58;7.80;99.90
24522;DHT22;12680;57.804;12.190;2023-04-15T05:31:25;7.80;99.90
24522;DHT22;12680;57.804;12.190;2023-04-15T05:33:52;7.80;99.90
24522;DHT22;12680;57.804;12.190;2023-04-15T05:36:19;7.80;99.90
24522;DHT22;12680;57.804;12.190;2023-04-15T05:38:46;7.80;99.90
24522;DHT22;12680;57.804;12.190;2023-04-15T05:41:13;7.90;99.90
24522;DHT22;12680;57.804;12.190;2023-04-15T05:43:45;7.90;99.90
24522;DHT22;12680;57.804;12.190;2023-04-15T05:46:11;8.00;99.90
24522;DHT22;12680;57.804;12.190;2023-04-15T05:48:38;8.00;99.90
24522;DHT22;12680;57.804;12.190;2023-04-15T05:51:05;8.00;99.90
24522;DHT22;12680;57.804;12.190;2023-04-15T05:53:32;8.10;99.90
24522;DHT22;12680;57.804;12.190;2023-04-15T05:55:58;8.10;99.90
24522;DHT22;12680;57.804;12.190;2023-04-15T05:58:25;8.10;99.90
24522;DHT22;12680;57.804;12.190;2023-04-15T06:00:52;8.10;99.90
24522;DHT22;12680;57.804;12.190;2023-04-15T06:03:19;8.20;99.90
24522;DHT22;12680;57.804;12.190;2023-04-15T06:05:46;8.30;99.90
24522;DHT22;12680;57.804;12.190;2023-04-15T06:08:12;8.40;99.90
24522;DHT22;12680;57.804;12.190;2023-04-15T06:10:39;8.40;99.90
24522;DHT22;12680;57.804;12.190;2023-04-15T06:13:06;8.50;99.90
24522;DHT22;12680;57.804;12.190;2023-04-15T06:15:33;8.50;99.90
24522;DHT22;12680;57.804;12.190;2023-04-15T06:18:00;8.50;99.90
24522;DHT22;12680;57.804;12.190;2023-04-15T06:20:27;8.50;99.90
24522;DHT22;12680;57.804;12.190;2023-04-15T06:22:54;8.60;99.90
24522;DHT22;12680;57.804;12.190;2023-04-15T06:25:21;8.60;99.90
24522;DHT22;12680;57.804;12.190;2023-04-15T06:27:48;8.60;99.90
24522;DHT22;12680;57.804;12.190;2023-04-15T06:30:14;8.70;99.90
24522;DHT22;12680;57.804;12.190;2023-04-15T06:32:41;8.70;99.90
24522;DHT22;12680;57.804;12.190;2023-04-15T06:35:08;8.70;99.90
24522;DHT22;12680;57.804;12.190;2023-04-15T06:37:35;8.80;99.90
24522;DHT22;12680;57.804;12.190;2023-04-15T06:40:02;8.80;99.90
24522;DHT22;12680;57.804;12.190;2023-04-15T06:42:30;8.80;99.90
24522;DHT22;12680;57.804;12.190;2023-04-15T06:44:57;8.80;99.90
24522;DHT22;12680;57.804;12.190;2023-04-15T06:47:25;8.80;99.90
24522;DHT22;12680;57.804;12.190;2023-04-15T06:49:52;8.80;99.90
24522;DHT22;12680;57.804;12.190;2023-04-15T06:52:18;8.80;99.90
24522;DHT22;12680;57.804;12.190;2023-04-15T06:54:45;8.80;99.90
24522;DHT22;12680;57.804;12.190;2023-04-15T06:57:12;8.80;99.90
24522;DHT22;12680;57.804;12.190;2023-04-15T06:59:39;8.80;99.90
24522;DHT22;12680;57.804;12.190;2023-04-15T07:02:06;8.80;99.90
24522;DHT22;12680;57.804;12.190;2023-04-15T07:04:34;8.80;99.90
24522;DHT22;12680;57.804;12.190;2023-04-15T07:07:01;8.90;99.90
24522;DHT22;12680;57.804;12.190;2023-04-15T07:09:28;10.20;99.90
24522;DHT22;12680;57.804;12.190;2023-04-15T07:11:55;10.20;99.90
24522;DHT22;12680;57.804;12.190;2023-04-15T07:14:21;8.80;99.90
24522;DHT22;12680;57.804;12.190;2023-04-15T07:16:48;8.90;99.90
24522;DHT22;12680;57.804;12.190;2023-04-15T07:19:15;8.90;99.90
24522;DHT22;12680;57.804;12.190;2023-04-15T07:21:42;9.00;99.90
24522;DHT22;12680;57.804;12.190;2023-04-15T07:24:09;9.00;99.90
24522;DHT22;12680;57.804;12.190;2023-04-15T07:26:36;9.10;99.90
24522;DHT22;12680;57.804;12.190;2023-04-15T07:29:03;10.20;99.90
24522;DHT22;12680;57.804;12.190;2023-04-15T07:31:30;9.20;99.90
24522;DHT22;12680;57.804;12.190;2023-04-15T07:33:57;9.20;99.90
24522;DHT22;12680;57.804;12.190;2023-04-15T07:36:24;10.60;99.90
24522;DHT22;12680;57.804;12.190;2023-04-15T07:38:51;9.30;99.90
24522;DHT22;12680;57.804;12.190;2023-04-15T07:41:18;9.30;99.90
24522;DHT22;12680;57.804;12.190;2023-04-15T07:43:46;9.40;99.90
24522;DHT22;12680;57.804;12.190;2023-04-15T07:46:13;9.60;99.90
24522;DHT22;12680;57.804;12.190;2023-04-15T07:48:39;9.40;99.90
24522;DHT22;12680;57.804;12.190;2023-04-15T07:51:07;9.40;99.90
24522;DHT22;12680;57.804;12.190;2023-04-15T07:53:34;9.30;99.90
24522;DHT22;12680;57.804;12.190;2023-04-15T07:56:01;9.30;99.90
24522;DHT22;12680;57.804;12.190;2023-04-15T07:58:27;9.30;99.90
24522;DHT22;12680;57.804;12.190;2023-04-15T08:00:54;9.30;99.90
24522;DHT22;12680;57.804;12.190;2023-04-15T08:03:22;9.40;99.90
24522;DHT22;12680;57.804;12.190;2023-04-15T08:05:49;9.40;99.90
24522;DHT22;12680;57.804;12.190;2023-04-15T08:08:16;11.10;99.90
24522;DHT22;12680;57.804;12.190;2023-04-15T08:10:43;9.40;99.90
24522;DHT22;12680;57.804;12.190;2023-04-15T08:13:10;9.50;99.90
24522;DHT22;12680;57.804;12.190;2023-04-15T08:15:37;9.50;99.90
24522;DHT22;12680;57.804;12.190;2023-04-15T08:18:04;10.00;99.90
24522;DHT22;12680;57.804;12.190;2023-04-15T08:20:31;9.60;99.90
24522;DHT22;12680;57.804;12.190;2023-04-15T08:22:58;9.70;99.90
24522;DHT22;12680;57.804;12.190;2023-04-15T08:25:24;9.80;99.90
24522;DHT22;12680;57.804;12.190;2023-04-15T08:27:54;9.80;99.90
24522;DHT22;12680;57.804;12.190;2023-04-15T08:30:21;10.00;99.90
24522;DHT22;12680;57.804;12.190;2023-04-15T08:32:49;10.10;99.90
24522;DHT22;12680;57.804;12.190;2023-04-15T08:35:16;10.10;99.90
24522;DHT22;12680;57.804;12.190;2023-04-15T08:37:43;10.00;99.90
24522;DHT22;12680;57.804;12.190;2023-04-15T08:40:10;10.00;99.90
24522;DHT22;12680;57.804;12.190;2023-04-15T08:42:43;10.00;99.90
24522;DHT22;12680;57.804;12.190;2023-04-15T08:45:10;10.00;99.90
24522;DHT22;12680;57.804;12.190;2023-04-15T08:47:37;10.00;99.90
24522;DHT22;12680;57.804;12.190;2023-04-15T08:50:09;10.00;99.90
24522;DHT22;12680;57.804;12.190;2023-04-15T08:52:37;10.10;99.90
24522;DHT22;12680;57.804;12.190;2023-04-15T08:55:05;10.20;99.90
24522;DHT22;12680;57.804;12.190;2023-04-15T08:57:34;10.10;99.90
24522;DHT22;12680;57.804;12.190;2023-04-15T09:00:02;10.00;99.90
24522;DHT22;12680;57.804;12.190;2023-04-15T09:02:31;10.10;99.90
24522;DHT22;12680;57.804;12.190;2023-04-15T09:04:58;10.20;99.90
24522;DHT22;12680;57.804;12.190;2023-04-15T09:07:25;10.30;99.90
24522;DHT22;12680;57.804;12.190;2023-04-15T09:09:52;11.00;99.90
24522;DHT22;12680;57.804;12.190;2023-04-15T09:12:19;11.20;99.90
24522;DHT22;12680;57.804;12.190;2023-04-15T09:14:46;10.60;99.90
24522;DHT22;12680;57.804;12.190;2023-04-15T09:17:18;10.90;99.90
24522;DHT22;12680;57.804;12.190;2023-04-15T09:19:46;10.90;99.90
24522;DHT22;12680;57.804;12.190;2023-04-15T09:22:13;11.10;99.90
24522;DHT22;12680;57.804;12.190;2023-04-15T09:24:40;12.10;99.90
24522;DHT22;12680;57.804;12.190;2023-04-15T09:27:08;11.50;99.90
24522;DHT22;12680;57.804;12.190;2023-04-15T09:29:35;11.60;99.90
24522;DHT22;12680;57.804;12.190;2023-04-15T09:32:10;12.80;99.90
24522;DHT22;12680;57.804;12.190;2023-04-15T09:34:37;12.00;99.90
24522;DHT22;12680;57.804;12.190;2023-04-15T09:37:04;12.50;99.90
24522;DHT22;12680;57.804;12.190;2023-04-15T09:40:02;12.20;99.90
24522;DHT22;12680;57.804;12.190;2023-04-15T09:42:29;12.20;99.90
24522;DHT22;12680;57.804;12.190;2023-04-15T09:45:10;12.40;99.90
24522;DHT22;12680;57.804;12.190;2023-04-15T09:47:37;12.40;99.90
24522;DHT22;12680;57.804;12.190;2023-04-15T09:50:04;13.10;99.90
24522;DHT22;12680;57.804;12.190;2023-04-15T09:52:31;12.80;99.90
24522;DHT22;12680;57.804;12.190;2023-04-15T09:54:59;12.90;99.90
24522;DHT22;12680;57.804;12.190;2023-04-15T09:57:33;13.60;99.90
24522;DHT22;12680;57.804;12.190;2023-04-15T10:00:06;13.30;99.80
24522;DHT22;12680;57.804;12.190;2023-04-15T10:02:34;13.50;99.80
24522;DHT22;12680;57.804;12.190;2023-04-15T10:05:01;13.60;99.40
24522;DHT22;12680;57.804;12.190;2023-04-15T10:07:29;14.20;99.40
24522;DHT22;12680;57.804;12.190;2023-04-15T10:09:58;13.70;99.30
24522;DHT22;12680;57.804;12.190;2023-04-15T10:12:26;14.40;99.40
24522;DHT22;12680;57.804;12.190;2023-04-15T10:15:04;15.00;99.00
24522;DHT22;12680;57.804;12.190;2023-04-15T10:17:32;13.90;98.50
24522;DHT22;12680;57.804;12.190;2023-04-15T10:20:02;14.50;98.40
24522;DHT22;12680;57.804;12.190;2023-04-15T10:22:31;15.00;98.50
24522;DHT22;12680;57.804;12.190;2023-04-15T10:24:58;14.20;98.40
24522;DHT22;12680;57.804;12.190;2023-04-15T10:27:26;14.50;98.40
24522;DHT22;12680;57.804;12.190;2023-04-15T10:29:53;15.60;98.60
24522;DHT22;12680;57.804;12.190;2023-04-15T10:32:21;14.60;98.00
24522;DHT22;12680;57.804;12.190;2023-04-15T10:34:48;14.70;97.60
24522;DHT22;12680;57.804;12.190;2023-04-15T10:37:36;14.80;97.60
24522;DHT22;12680;57.804;12.190;2023-04-15T10:40:23;14.90;97.20
24522;DHT22;12680;57.804;12.190;2023-04-15T10:42:52;15.00;97.40
24522;DHT22;12680;57.804;12.190;2023-04-15T10:45:19;15.10;97.20
24522;DHT22;12680;57.804;12.190;2023-04-15T10:47:49;15.20;97.10
24522;DHT22;12680;57.804;12.190;2023-04-15T10:50:17;15.20;96.80
24522;DHT22;12680;57.804;12.190;2023-04-15T10:52:44;15.40;97.10
24522;DHT22;12680;57.804;12.190;2023-04-15T10:55:18;15.50;96.70
24522;DHT22;12680;57.804;12.190;2023-04-15T10:57:45;15.60;96.80
24522;DHT22;12680;57.804;12.190;2023-04-15T11:00:17;15.80;96.70
24522;DHT22;12680;57.804;12.190;2023-04-15T11:03:05;16.00;96.20
24522;DHT22;12680;57.804;12.190;2023-04-15T11:08:09;16.90;96.10
24522;DHT22;12680;57.804;12.190;2023-04-15T11:13:06;16.20;95.70
24522;DHT22;12680;57.804;12.190;2023-04-15T11:15:44;16.30;95.40
24522;DHT22;12680;57.804;12.190;2023-04-15T11:18:22;16.50;95.20
24522;DHT22;12680;57.804;12.190;2023-04-15T11:20:50;16.60;95.40
24522;DHT22;12680;57.804;12.190;2023-04-15T11:23:29;16.90;94.80
24522;DHT22;12680;57.804;12.190;2023-04-15T11:25:58;16.80;94.80
24522;DHT22;12680;57.804;12.190;2023-04-15T11:28:26;16.90;94.00
24522;DHT22;12680;57.804;12.190;2023-04-15T11:30:54;17.00;93.90
24522;DHT22;12680;57.804;12.190;2023-04-15T11:33:22;17.00;93.90
24522;DHT22;12680;57.804;12.190;2023-04-15T11:35:53;17.20;94.00
24522;DHT22;12680;57.804;12.190;2023-04-15T11:38:20;17.20;93.10
24522;DHT22;12680;57.804;12.190;2023-04-15T11:40:49;17.20;93.20
24522;DHT22;12680;57.804;12.190;2023-04-15T11:43:20;17.30;93.30
24522;DHT22;12680;57.804;12.190;2023-04-15T11:48:24;17.50;92.30
24522;DHT22;12680;57.804;12.190;2023-04-15T11:51:05;17.40;92.10
24522;DHT22;12680;57.804;12.190;2023-04-15T11:53:37;17.40;92.10
24522;DHT22;12680;57.804;12.190;2023-04-15T11:56:05;17.40;91.90
24522;DHT22;12680;57.804;12.190;2023-04-15T11:58:34;17.40;91.80
24522;DHT22;12680;57.804;12.190;2023-04-15T12:01:04;17.50;91.80
24522;DHT22;12680;57.804;12.190;2023-04-15T12:03:43;17.50;91.10
24522;DHT22;12680;57.804;12.190;2023-04-15T12:06:21;17.50;91.00
24522;DHT22;12680;57.804;12.190;2023-04-15T12:09:00;17.70;91.10
24522;DHT22;12680;57.804;12.190;2023-04-15T12:11:29;17.80;90.70
24522;DHT22;12680;57.804;12.190;2023-04-15T12:16:36;17.90;90.10
24522;DHT22;12680;57.804;12.190;2023-04-15T12:19:17;17.80;89.80
24522;DHT22;12680;57.804;12.190;2023-04-15T12:21:46;17.70;89.20
24522;DHT22;12680;57.804;12.190;2023-04-15T12:24:13;17.70;90.20
24522;DHT22;12680;57.804;12.190;2023-04-15T12:26:48;17.90;90.10
24522;DHT22;12680;57.804;12.190;2023-04-15T12:29:16;18.00;89.70
24522;DHT22;12680;57.804;12.190;2023-04-15T12:31:51;18.10;88.40
24522;DHT22;12680;57.804;12.190;2023-04-15T12:34:26;18.20;88.10
24522;DHT22;12680;57.804;12.190;2023-04-15T12:36:54;18.90;88.70
24522;DHT22;12680;57.804;12.190;2023-04-15T12:39:23;19.70;88.20
24522;DHT22;12680;57.804;12.190;2023-04-15T12:41:51;19.50;86.80
24522;DHT22;12680;57.804;12.190;2023-04-15T12:44:18;18.70;85.50
24522;DHT22;12680;57.804;12.190;2023-04-15T12:46:45;18.80;85.30
24522;DHT22;12680;57.804;12.190;2023-04-15T12:49:12;18.80;85.40
24522;DHT22;12680;57.804;12.190;2023-04-15T12:51:45;18.80;85.20
24522;DHT22;12680;57.804;12.190;2023-04-15T12:54:12;18.80;84.70
24522;DHT22;12680;57.804;12.190;2023-04-15T12:56:39;18.80;85.30
24522;DHT22;12680;57.804;12.190;2023-04-15T12:59:06;18.80;83.30
24522;DHT22;12680;57.804;12.190;2023-04-15T13:01:32;18.80;82.80
24522;DHT22;12680;57.804;12.190;2023-04-15T13:03:59;18.80;83.60
24522;DHT22;12680;57.804;12.190;2023-04-15T13:06:26;18.90;82.50
24522;DHT22;12680;57.804;12.190;2023-04-15T13:08:54;19.00;82.60
24522;DHT22;12680;57.804;12.190;2023-04-15T13:11:24;19.50;83.10
24522;DHT22;12680;57.804;12.190;2023-04-15T13:13:51;19.00;83.00
24522;DHT22;12680;57.804;12.190;2023-04-15T13:16:18;19.20;82.80
24522;DHT22;12680;57.804;12.190;2023-04-15T13:18:45;19.30;82.60
24522;DHT22;12680;57.804;12.190;2023-04-15T13:21:12;19.30;82.60
24522;DHT22;12680;57.804;12.190;2023-04-15T13:23:42;19.30;82.40
24522;DHT22;12680;57.804;12.190;2023-04-15T13:26:09;19.40;82.80
24522;DHT22;12680;57.804;12.190;2023-04-15T13:28:36;19.50;81.60
24522;DHT22;12680;57.804;12.190;2023-04-15T13:31:04;20.10;82.40
24522;DHT22;12680;57.804;12.190;2023-04-15T13:33:31;19.50;80.10
24522;DHT22;12680;57.804;12.190;2023-04-15T13:35:58;19.30;79.70
24522;DHT22;12680;57.804;12.190;2023-04-15T13:38:24;19.20;80.30
24522;DHT22;12680;57.804;12.190;2023-04-15T13:40:51;18.30;80.10
24522;DHT22;12680;57.804;12.190;2023-04-15T13:43:18;19.10;80.80
24522;DHT22;12680;57.804;12.190;2023-04-15T13:45:45;19.20;80.00
24522;DHT22;12680;57.804;12.190;2023-04-15T13:48:12;19.10;80.40
24522;DHT22;12680;57.804;12.190;2023-04-15T13:50:39;19.40;80.40
24522;DHT22;12680;57.804;12.190;2023-04-15T13:53:11;19.90;80.70
24522;DHT22;12680;57.804;12.190;2023-04-15T13:55:38;19.40;80.60
24522;DHT22;12680;57.804;12.190;2023-04-15T13:58:10;18.80;80.00
24522;DHT22;12680;57.804;12.190;2023-04-15T14:00:37;18.50;79.90
24522;DHT22;12680;57.804;12.190;2023-04-15T14:03:04;19.00;80.70
24522;DHT22;12680;57.804;12.190;2023-04-15T14:05:31;18.30;81.00
24522;DHT22;12680;57.804;12.190;2023-04-15T14:07:59;18.90;81.70
24522;DHT22;12680;57.804;12.190;2023-04-15T14:10:26;18.40;81.70
24522;DHT22;12680;57.804;12.190;2023-04-15T14:12:52;18.20;81.70
24522;DHT22;12680;57.804;12.190;2023-04-15T14:15:20;18.20;81.90
24522;DHT22;12680;57.804;12.190;2023-04-15T14:17:47;18.30;82.10
24522;DHT22;12680;57.804;12.190;2023-04-15T14:20:14;18.20;81.80
24522;DHT22;12680;57.804;12.190;2023-04-15T14:22:42;18.80;82.10
24522;DHT22;12680;57.804;12.190;2023-04-15T14:25:09;17.80;82.10
24522;DHT22;12680;57.804;12.190;2023-04-15T14:27:49;18.60;83.50
24522;DHT22;12680;57.804;12.190;2023-04-15T14:30:16;17.60;83.40
24522;DHT22;12680;57.804;12.190;2023-04-15T14:32:43;17.60;83.70
24522;DHT22;12680;57.804;12.190;2023-04-15T14:35:10;18.00;84.50
24522;DHT22;12680;57.804;12.190;2023-04-15T14:37:37;18.50;84.60
24522;DHT22;12680;57.804;12.190;2023-04-15T14:40:04;17.40;84.40
24522;DHT22;12680;57.804;12.190;2023-04-15T14:42:31;17.40;84.20
24522;DHT22;12680;57.804;12.190;2023-04-15T14:44:58;17.80;84.30
24522;DHT22;12680;57.804;12.190;2023-04-15T14:47:25;17.30;84.10
24522;DHT22;12680;57.804;12.190;2023-04-15T14:49:52;17.30;84.40
24522;DHT22;12680;57.804;12.190;2023-04-15T14:52:18;17.40;84.30
24522;DHT22;12680;57.804;12.190;2023-04-15T14:54:45;17.40;83.70
24522;DHT22;12680;57.804;12.190;2023-04-15T14:57:12;17.40;84.00
24522;DHT22;12680;57.804;12.190;2023-04-15T14:59:39;17.40;83.90
24522;DHT22;12680;57.804;12.190;2023-04-15T15:02:07;17.40;83.70
24522;DHT22;12680;57.804;12.190;2023-04-15T15:04:34;17.40;83.80
24522;DHT22;12680;57.804;12.190;2023-04-15T15:07:02;18.70;84.50
24522;DHT22;12680;57.804;12.190;2023-04-15T15:09:28;17.40;83.50
24522;DHT22;12680;57.804;12.190;2023-04-15T15:11:55;17.50;83.60
24522;DHT22;12680;57.804;12.190;2023-04-15T15:14:23;17.80;83.80
24522;DHT22;12680;57.804;12.190;2023-04-15T15:16:50;17.40;83.40
24522;DHT22;12680;57.804;12.190;2023-04-15T15:19:16;17.40;83.70
24522;DHT22;12680;57.804;12.190;2023-04-15T15:21:43;17.60;84.20
24522;DHT22;12680;57.804;12.190;2023-04-15T15:24:10;17.70;83.90
24522;DHT22;12680;57.804;12.190;2023-04-15T15:26:37;17.70;83.10
24522;DHT22;12680;57.804;12.190;2023-04-15T15:29:04;18.50;83.50
24522;DHT22;12680;57.804;12.190;2023-04-15T15:31:33;17.60;82.70
24522;DHT22;12680;57.804;12.190;2023-04-15T15:34:00;17.60;83.00
24522;DHT22;12680;57.804;12.190;2023-04-15T15:36:28;17.40;83.20
24522;DHT22;12680;57.804;12.190;2023-04-15T15:38:55;17.30;83.40